sensor_id;sensor_type;location;lat;lon;timestamp;P1;durP1;ratioP1;P2;durP2;ratioP2
61640;SDS011;62201;49.966;8.342;2022-09-12T00:01:43;34.92;;;16.40;;
61640;SDS011;62201;49.966;8.342;2022-09-12T00:04:08;33.20;;;17.30;;
61640;SDS011;62201;49.966;8.342;2022-09-12T00:06:34;33.80;;;17.05;;
61640;SDS011;62201;49.966;8.342;2022-09-12T00:09:03;32.35;;;16.88;;
61640;SDS011;62201;49.966;8.342;2022-09-12T00:11:33;35.45;;;16.80;;
61640;SDS011;62201;49.966;8.342;2022-09-12T00:14:03;28.77;;;16.08;;
61640;SDS011;62201;49.966;8.342;2022-09-12T00:16:29;26.25;;;15.85;;
61640;SDS011;62201;49.966;8.342;2022-09-12T00:18:56;27.65;;;15.68;;
61640;SDS011;62201;49.966;8.342;2022-09-12T00:21:22;24.25;;;15.27;;
61640;SDS011;62201;49.966;8.342;2022-09-12T00:23:48;23.70;;;13.40;;
61640;SDS011;62201;49.966;8.342;2022-09-12T00:26:14;21.95;;;13.27;;
61640;SDS011;62201;49.966;8.342;2022-09-12T00:28:41;24.92;;;14.63;;
61640;SDS011;62201;49.966;8.342;2022-09-12T00:31:07;20.30;;;13.77;;
61640;SDS011;62201;49.966;8.342;2022-09-12T00:33:35;24.35;;;12.77;;
61640;SDS011;62201;49.966;8.342;2022-09-12T00:36:04;18.17;;;12.73;;
61640;SDS011;62201;49.966;8.342;2022-09-12T00:38:31;19.40;;;13.00;;
61640;SDS011;62201;49.966;8.342;2022-09-12T00:40:57;17.30;;;12.65;;
61640;SDS011;62201;49.966;8.342;2022-09-12T00:45:53;23.60;;;13.27;;
61640;SDS011;62201;49.966;8.342;2022-09-12T00:48:21;21.42;;;12.18;;
61640;SDS011;62201;49.966;8.342;2022-09-12T00:50:55;16.92;;;12.57;;
61640;SDS011;62201;49.966;8.342;2022-09-12T00:53:21;21.30;;;13.60;;
61640;SDS011;62201;49.966;8.342;2022-09-12T00:55:46;20.23;;;12.40;;
61640;SDS011;62201;49.966;8.342;2022-09-12T00:58:19;24.02;;;13.23;;
61640;SDS011;62201;49.966;8.342;2022-09-12T01:00:48;21.42;;;13.73;;
61640;SDS011;62201;49.966;8.342;2022-09-12T01:03:15;25.23;;;14.25;;
61640;SDS011;62201;49.966;8.342;2022-09-12T01:05:46;23.23;;;14.27;;
61640;SDS011;62201;49.966;8.342;2022-09-12T01:08:23;23.23;;;14.13;;
61640;SDS011;62201;49.966;8.342;2022-09-12T01:10:50;22.17;;;14.38;;
61640;SDS011;62201;49.966;8.342;2022-09-12T01:13:16;24.30;;;14.27;;
61640;SDS011;62201;49.966;8.342;2022-09-12T01:15:41;22.08;;;14.02;;
61640;SDS011;62201;49.966;8.342;2022-09-12T01:18:13;17.77;;;12.68;;
61640;SDS011;62201;49.966;8.342;2022-09-12T01:29:55;21.70;;;13.95;;
61640;SDS011;62201;49.966;8.342;2022-09-12T01:37:48;20.73;;;13.52;;
61640;SDS011;62201;49.966;8.342;2022-09-12T01:40:30;25.42;;;15.15;;
61640;SDS011;62201;49.966;8.342;2022-09-12T01:45:55;26.88;;;15.77;;
61640;SDS011;62201;49.966;8.342;2022-09-12T01:48:28;26.00;;;14.80;;
61640;SDS011;62201;49.966;8.342;2022-09-12T01:50:59;24.08;;;14.55;;
61640;SDS011;62201;49.966;8.342;2022-09-12T01:53:33;21.77;;;15.40;;
61640;SDS011;62201;49.966;8.342;2022-09-12T01:58:42;19.67;;;13.85;;
61640;SDS011;62201;49.966;8.342;2022-09-12T02:01:13;21.45;;;14.63;;
61640;SDS011;62201;49.966;8.342;2022-09-12T02:03:50;26.15;;;15.40;;
61640;SDS011;62201;49.966;8.342;2022-09-12T02:06:22;26.08;;;15.55;;
61640;SDS011;62201;49.966;8.342;2022-09-12T02:09:10;28.15;;;16.85;;
61640;SDS011;62201;49.966;8.342;2022-09-12T02:11:40;29.52;;;16.42;;
61640;SDS011;62201;49.966;8.342;2022-09-12T02:14:09;34.83;;;19.15;;
61640;SDS011;62201;49.966;8.342;2022-09-12T02:16:40;37.05;;;20.20;;
61640;SDS011;62201;49.966;8.342;2022-09-12T02:19:13;39.70;;;21.23;;
61640;SDS011;62201;49.966;8.342;2022-09-12T02:21:46;41.95;;;21.20;;
61640;SDS011;62201;49.966;8.342;2022-09-12T02:24:16;40.70;;;20.75;;
61640;SDS011;62201;49.966;8.342;2022-09-12T02:26:43;32.95;;;19.20;;
61640;SDS011;62201;49.966;8.342;2022-09-12T02:29:13;23.85;;;15.65;;
61640;SDS011;62201;49.966;8.342;2022-09-12T02:31:40;31.58;;;16.40;;
61640;SDS011;62201;49.966;8.342;2022-09-12T02:35:12;31.48;;;18.35;;
61640;SDS011;62201;49.966;8.342;2022-09-12T02:39:57;32.90;;;19.52;;
61640;SDS011;62201;49.966;8.342;2022-09-12T02:42:23;42.92;;;22.63;;
61640;SDS011;62201;49.966;8.342;2022-09-12T02:44:50;40.28;;;20.70;;
61640;SDS011;62201;49.966;8.342;2022-09-12T02:47:22;27.25;;;15.85;;
61640;SDS011;62201;49.966;8.342;2022-09-12T02:50:00;29.63;;;17.27;;
61640;SDS011;62201;49.966;8.342;2022-09-12T02:52:29;28.10;;;17.33;;
61640;SDS011;62201;49.966;8.342;2022-09-12T02:54:54;32.90;;;18.60;;
61640;SDS011;62201;49.966;8.342;2022-09-12T02:57:22;25.23;;;15.32;;
61640;SDS011;62201;49.966;8.342;2022-09-12T02:59:48;41.40;;;21.95;;
61640;SDS011;62201;49.966;8.342;2022-09-12T03:02:23;43.13;;;21.20;;
61640;SDS011;62201;49.966;8.342;2022-09-12T03:05:27;31.38;;;18.60;;
61640;SDS011;62201;49.966;8.342;2022-09-12T03:15:37;28.63;;;17.40;;
61640;SDS011;62201;49.966;8.342;2022-09-12T03:26:15;35.88;;;19.45;;
61640;SDS011;62201;49.966;8.342;2022-09-12T03:28:52;36.83;;;20.85;;
61640;SDS011;62201;49.966;8.342;2022-09-12T03:31:19;36.58;;;19.13;;
61640;SDS011;62201;49.966;8.342;2022-09-12T03:33:45;27.73;;;17.60;;
61640;SDS011;62201;49.966;8.342;2022-09-12T03:36:14;33.28;;;18.52;;
61640;SDS011;62201;49.966;8.342;2022-09-12T03:38:43;33.28;;;20.42;;
61640;SDS011;62201;49.966;8.342;2022-09-12T03:41:08;33.95;;;20.02;;
61640;SDS011;62201;49.966;8.342;2022-09-12T03:43:34;26.65;;;17.23;;
61640;SDS011;62201;49.966;8.342;2022-09-12T03:45:59;36.38;;;20.75;;
61640;SDS011;62201;49.966;8.342;2022-09-12T03:48:24;36.25;;;21.58;;
61640;SDS011;62201;49.966;8.342;2022-09-12T03:50:50;35.03;;;19.73;;
61640;SDS011;62201;49.966;8.342;2022-09-12T03:53:15;35.03;;;20.08;;
61640;SDS011;62201;49.966;8.342;2022-09-12T03:55:40;30.35;;;19.20;;
61640;SDS011;62201;49.966;8.342;2022-09-12T03:58:06;32.72;;;19.40;;
61640;SDS011;62201;49.966;8.342;2022-09-12T04:00:31;32.85;;;19.98;;
61640;SDS011;62201;49.966;8.342;2022-09-12T04:02:57;33.05;;;19.75;;
61640;SDS011;62201;49.966;8.342;2022-09-12T04:05:23;41.28;;;20.45;;
61640;SDS011;62201;49.966;8.342;2022-09-12T04:07:49;34.05;;;20.33;;
61640;SDS011;62201;49.966;8.342;2022-09-12T04:10:14;32.58;;;19.40;;
61640;SDS011;62201;49.966;8.342;2022-09-12T04:12:40;35.63;;;20.60;;
61640;SDS011;62201;49.966;8.342;2022-09-12T04:15:06;34.70;;;21.20;;
61640;SDS011;62201;49.966;8.342;2022-09-12T04:17:35;34.75;;;20.88;;
61640;SDS011;62201;49.966;8.342;2022-09-12T04:20:00;35.72;;;20.90;;
61640;SDS011;62201;49.966;8.342;2022-09-12T04:22:26;32.83;;;19.20;;
61640;SDS011;62201;49.966;8.342;2022-09-12T04:24:52;27.45;;;17.20;;
61640;SDS011;62201;49.966;8.342;2022-09-12T04:27:17;38.97;;;20.90;;
61640;SDS011;62201;49.966;8.342;2022-09-12T04:29:42;36.05;;;19.92;;
61640;SDS011;62201;49.966;8.342;2022-09-12T04:32:08;30.13;;;19.27;;
61640;SDS011;62201;49.966;8.342;2022-09-12T04:34:33;35.40;;;20.25;;
61640;SDS011;62201;49.966;8.342;2022-09-12T04:36:59;35.15;;;21.02;;
61640;SDS011;62201;49.966;8.342;2022-09-12T04:39:24;28.50;;;19.17;;
61640;SDS011;62201;49.966;8.342;2022-09-12T04:41:49;32.55;;;18.13;;
61640;SDS011;62201;49.966;8.342;2022-09-12T04:44:15;28.85;;;17.90;;
61640;SDS011;62201;49.966;8.342;2022-09-12T04:46:42;34.38;;;20.05;;
61640;SDS011;62201;49.966;8.342;2022-09-12T04:49:10;34.80;;;19.67;;
61640;SDS011;62201;49.966;8.342;2022-09-12T04:51:37;35.47;;;20.52;;
61640;SDS011;62201;49.966;8.342;2022-09-12T04:54:05;36.75;;;20.08;;
61640;SDS011;62201;49.966;8.342;2022-09-12T04:56:38;36.22;;;19.83;;
61640;SDS011;62201;49.966;8.342;2022-09-12T04:59:05;35.35;;;20.35;;
61640;SDS011;62201;49.966;8.342;2022-09-12T05:01:31;34.47;;;19.88;;
61640;SDS011;62201;49.966;8.342;2022-09-12T05:03:56;32.53;;;20.05;;
61640;SDS011;62201;49.966;8.342;2022-09-12T05:06:24;32.00;;;19.55;;
61640;SDS011;62201;49.966;8.342;2022-09-12T05:08:52;35.17;;;20.00;;
61640;SDS011;62201;49.966;8.342;2022-09-12T05:11:21;31.65;;;19.73;;
61640;SDS011;62201;49.966;8.342;2022-09-12T05:13:49;36.10;;;20.85;;
61640;SDS011;62201;49.966;8.342;2022-09-12T05:16:15;34.28;;;20.02;;
61640;SDS011;62201;49.966;8.342;2022-09-12T05:18:41;36.63;;;21.20;;
61640;SDS011;62201;49.966;8.342;2022-09-12T05:21:09;33.83;;;18.77;;
61640;SDS011;62201;49.966;8.342;2022-09-12T05:23:36;35.70;;;20.08;;
61640;SDS011;62201;49.966;8.342;2022-09-12T05:26:02;31.33;;;18.35;;
61640;SDS011;62201;49.966;8.342;2022-09-12T05:28:29;32.20;;;18.52;;
61640;SDS011;62201;49.966;8.342;2022-09-12T05:31:07;32.05;;;19.73;;
61640;SDS011;62201;49.966;8.342;2022-09-12T05:33:36;24.27;;;15.60;;
61640;SDS011;62201;49.966;8.342;2022-09-12T05:36:03;23.67;;;15.93;;
61640;SDS011;62201;49.966;8.342;2022-09-12T05:38:30;25.42;;;17.33;;
61640;SDS011;62201;49.966;8.342;2022-09-12T05:41:16;22.58;;;15.55;;
61640;SDS011;62201;49.966;8.342;2022-09-12T05:43:43;28.05;;;16.40;;
61640;SDS011;62201;49.966;8.342;2022-09-12T05:46:10;26.83;;;16.77;;
61640;SDS011;62201;49.966;8.342;2022-09-12T05:48:40;23.35;;;16.10;;
61640;SDS011;62201;49.966;8.342;2022-09-12T05:51:09;27.35;;;16.67;;
61640;SDS011;62201;49.966;8.342;2022-09-12T05:53:37;30.17;;;16.80;;
61640;SDS011;62201;49.966;8.342;2022-09-12T05:58:30;23.98;;;16.67;;
61640;SDS011;62201;49.966;8.342;2022-09-12T06:01:00;27.00;;;17.85;;
61640;SDS011;62201;49.966;8.342;2022-09-12T06:03:39;23.35;;;15.85;;
61640;SDS011;62201;49.966;8.342;2022-09-12T06:06:08;28.95;;;16.75;;
61640;SDS011;62201;49.966;8.342;2022-09-12T06:08:38;24.27;;;16.38;;
61640;SDS011;62201;49.966;8.342;2022-09-12T06:11:05;26.15;;;16.67;;
61640;SDS011;62201;49.966;8.342;2022-09-12T06:13:32;26.40;;;16.45;;
61640;SDS011;62201;49.966;8.342;2022-09-12T06:16:08;24.27;;;15.82;;
61640;SDS011;62201;49.966;8.342;2022-09-12T06:18:45;25.08;;;15.57;;
61640;SDS011;62201;49.966;8.342;2022-09-12T06:21:15;22.35;;;15.70;;
61640;SDS011;62201;49.966;8.342;2022-09-12T06:23:42;24.70;;;15.85;;
61640;SDS011;62201;49.966;8.342;2022-09-12T06:26:09;24.50;;;16.08;;
61640;SDS011;62201;49.966;8.342;2022-09-12T06:28:35;28.02;;;17.27;;
61640;SDS011;62201;49.966;8.342;2022-09-12T06:31:07;21.85;;;15.32;;
61640;SDS011;62201;49.966;8.342;2022-09-12T06:33:38;26.92;;;14.90;;
61640;SDS011;62201;49.966;8.342;2022-09-12T06:36:06;22.25;;;14.77;;
61640;SDS011;62201;49.966;8.342;2022-09-12T06:38:34;17.58;;;13.07;;
61640;SDS011;62201;49.966;8.342;2022-09-12T06:41:02;18.00;;;12.90;;
61640;SDS011;62201;49.966;8.342;2022-09-12T06:43:29;15.75;;;12.38;;
61640;SDS011;62201;49.966;8.342;2022-09-12T06:45:55;17.83;;;12.60;;
61640;SDS011;62201;49.966;8.342;2022-09-12T06:48:21;17.45;;;12.25;;
61640;SDS011;62201;49.966;8.342;2022-09-12T06:51:00;19.73;;;11.55;;
61640;SDS011;62201;49.966;8.342;2022-09-12T06:53:27;15.80;;;12.15;;
61640;SDS011;62201;49.966;8.342;2022-09-12T06:55:57;23.73;;;12.95;;
61640;SDS011;62201;49.966;8.342;2022-09-12T06:58:24;19.27;;;12.23;;
61640;SDS011;62201;49.966;8.342;2022-09-12T07:00:51;15.00;;;11.30;;
61640;SDS011;62201;49.966;8.342;2022-09-12T07:03:16;15.18;;;11.75;;
61640;SDS011;62201;49.966;8.342;2022-09-12T07:05:42;16.58;;;11.85;;
61640;SDS011;62201;49.966;8.342;2022-09-12T07:08:08;15.40;;;11.88;;
61640;SDS011;62201;49.966;8.342;2022-09-12T07:10:33;15.13;;;11.63;;
61640;SDS011;62201;49.966;8.342;2022-09-12T07:12:58;14.63;;;12.13;;
61640;SDS011;62201;49.966;8.342;2022-09-12T07:15:27;14.57;;;11.15;;
61640;SDS011;62201;49.966;8.342;2022-09-12T07:17:52;15.65;;;11.13;;
61640;SDS011;62201;49.966;8.342;2022-09-12T07:20:18;16.55;;;11.32;;
61640;SDS011;62201;49.966;8.342;2022-09-12T07:22:43;15.85;;;11.52;;
61640;SDS011;62201;49.966;8.342;2022-09-12T07:25:09;14.63;;;11.20;;
61640;SDS011;62201;49.966;8.342;2022-09-12T07:27:34;16.73;;;11.88;;
61640;SDS011;62201;49.966;8.342;2022-09-12T07:30:01;15.15;;;11.75;;
61640;SDS011;62201;49.966;8.342;2022-09-12T07:32:28;17.17;;;11.43;;
61640;SDS011;62201;49.966;8.342;2022-09-12T07:34:53;15.68;;;11.75;;
61640;SDS011;62201;49.966;8.342;2022-09-12T07:37:19;15.15;;;11.48;;
61640;SDS011;62201;49.966;8.342;2022-09-12T07:39:44;16.90;;;11.35;;
61640;SDS011;62201;49.966;8.342;2022-09-12T07:42:09;17.23;;;11.48;;
61640;SDS011;62201;49.966;8.342;2022-09-12T07:44:36;13.73;;;11.10;;
61640;SDS011;62201;49.966;8.342;2022-09-12T07:47:01;16.75;;;10.63;;
61640;SDS011;62201;49.966;8.342;2022-09-12T07:49:27;17.73;;;10.98;;
61640;SDS011;62201;49.966;8.342;2022-09-12T07:51:54;14.18;;;10.82;;
61640;SDS011;62201;49.966;8.342;2022-09-12T07:54:20;22.85;;;11.15;;
61640;SDS011;62201;49.966;8.342;2022-09-12T07:56:45;14.45;;;11.30;;
61640;SDS011;62201;49.966;8.342;2022-09-12T07:59:11;17.08;;;10.55;;
61640;SDS011;62201;49.966;8.342;2022-09-12T08:01:36;14.93;;;10.52;;
61640;SDS011;62201;49.966;8.342;2022-09-12T08:04:03;16.75;;;10.73;;
61640;SDS011;62201;49.966;8.342;2022-09-12T08:06:29;13.20;;;10.55;;
61640;SDS011;62201;49.966;8.342;2022-09-12T08:08:56;15.82;;;10.30;;
61640;SDS011;62201;49.966;8.342;2022-09-12T08:11:23;13.63;;;10.30;;
61640;SDS011;62201;49.966;8.342;2022-09-12T08:13:49;16.90;;;10.25;;
61640;SDS011;62201;49.966;8.342;2022-09-12T08:16:17;16.67;;;9.52;;
61640;SDS011;62201;49.966;8.342;2022-09-12T08:18:45;20.08;;;10.35;;
61640;SDS011;62201;49.966;8.342;2022-09-12T08:21:20;20.23;;;9.10;;
61640;SDS011;62201;49.966;8.342;2022-09-12T08:23:58;11.55;;;9.10;;
61640;SDS011;62201;49.966;8.342;2022-09-12T08:26:25;14.33;;;9.37;;
61640;SDS011;62201;49.966;8.342;2022-09-12T08:28:51;13.38;;;9.73;;
61640;SDS011;62201;49.966;8.342;2022-09-12T08:31:18;11.20;;;9.18;;
61640;SDS011;62201;49.966;8.342;2022-09-12T08:33:44;11.18;;;9.30;;
61640;SDS011;62201;49.966;8.342;2022-09-12T08:36:14;11.80;;;9.05;;
61640;SDS011;62201;49.966;8.342;2022-09-12T08:38:42;13.98;;;8.45;;
61640;SDS011;62201;49.966;8.342;2022-09-12T08:41:29;17.05;;;8.75;;
61640;SDS011;62201;49.966;8.342;2022-09-12T08:47:00;11.20;;;8.20;;
61640;SDS011;62201;49.966;8.342;2022-09-12T08:49:53;12.85;;;9.10;;
61640;SDS011;62201;49.966;8.342;2022-09-12T08:55:17;17.25;;;9.05;;
61640;SDS011;62201;49.966;8.342;2022-09-12T08:57:48;16.85;;;8.65;;
61640;SDS011;62201;49.966;8.342;2022-09-12T09:00:15;11.73;;;8.68;;
61640;SDS011;62201;49.966;8.342;2022-09-12T09:08:15;12.40;;;8.20;;
61640;SDS011;62201;49.966;8.342;2022-09-12T09:13:56;9.65;;;7.80;;
61640;SDS011;62201;49.966;8.342;2022-09-12T09:16:51;11.13;;;7.55;;
61640;SDS011;62201;49.966;8.342;2022-09-12T09:19:22;10.88;;;7.72;;
61640;SDS011;62201;49.966;8.342;2022-09-12T09:22:05;8.27;;;6.80;;
61640;SDS011;62201;49.966;8.342;2022-09-12T09:24:42;10.57;;;7.25;;
61640;SDS011;62201;49.966;8.342;2022-09-12T09:27:14;10.70;;;7.65;;
61640;SDS011;62201;49.966;8.342;2022-09-12T09:29:46;10.27;;;6.93;;
61640;SDS011;62201;49.966;8.342;2022-09-12T09:32:28;9.60;;;7.40;;
61640;SDS011;62201;49.966;8.342;2022-09-12T09:34:58;9.38;;;7.25;;
61640;SDS011;62201;49.966;8.342;2022-09-12T09:37:40;12.68;;;7.43;;
61640;SDS011;62201;49.966;8.342;2022-09-12T09:40:23;9.05;;;7.70;;
61640;SDS011;62201;49.966;8.342;2022-09-12T09:43:02;9.32;;;7.20;;
61640;SDS011;62201;49.966;8.342;2022-09-12T09:45:36;8.77;;;6.15;;
61640;SDS011;62201;49.966;8.342;2022-09-12T09:50:42;8.85;;;6.82;;
61640;SDS011;62201;49.966;8.342;2022-09-12T09:53:14;8.40;;;6.63;;
61640;SDS011;62201;49.966;8.342;2022-09-12T09:56:06;8.80;;;6.18;;
61640;SDS011;62201;49.966;8.342;2022-09-12T09:58:36;16.40;;;6.55;;
61640;SDS011;62201;49.966;8.342;2022-09-12T10:01:04;15.32;;;6.35;;
61640;SDS011;62201;49.966;8.342;2022-09-12T10:03:37;10.15;;;6.80;;
61640;SDS011;62201;49.966;8.342;2022-09-12T10:06:07;9.30;;;6.80;;
61640;SDS011;62201;49.966;8.342;2022-09-12T10:09:06;11.77;;;6.57;;
61640;SDS011;62201;49.966;8.342;2022-09-12T10:11:46;8.60;;;5.63;;
61640;SDS011;62201;49.966;8.342;2022-09-12T10:19:51;12.95;;;6.22;;
61640;SDS011;62201;49.966;8.342;2022-09-12T10:22:17;6.63;;;5.20;;
61640;SDS011;62201;49.966;8.342;2022-09-12T10:24:47;8.77;;;5.38;;
61640;SDS011;62201;49.966;8.342;2022-09-12T10:27:19;8.45;;;5.45;;
61640;SDS011;62201;49.966;8.342;2022-09-12T10:34:57;6.18;;;4.65;;
61640;SDS011;62201;49.966;8.342;2022-09-12T10:37:36;6.85;;;4.80;;
61640;SDS011;62201;49.966;8.342;2022-09-12T10:40:04;8.85;;;4.60;;
61640;SDS011;62201;49.966;8.342;2022-09-12T10:42:48;6.40;;;4.40;;
61640;SDS011;62201;49.966;8.342;2022-09-12T10:45:38;5.63;;;4.88;;
61640;SDS011;62201;49.966;8.342;2022-09-12T10:50:53;4.63;;;3.88;;
61640;SDS011;62201;49.966;8.342;2022-09-12T11:01:40;4.13;;;3.72;;
61640;SDS011;62201;49.966;8.342;2022-09-12T11:12:47;7.32;;;4.20;;
61640;SDS011;62201;49.966;8.342;2022-09-12T11:18:18;5.05;;;3.47;;
61640;SDS011;62201;49.966;8.342;2022-09-12T11:29:28;4.82;;;3.55;;
61640;SDS011;62201;49.966;8.342;2022-09-12T11:35:25;3.45;;;2.90;;
61640;SDS011;62201;49.966;8.342;2022-09-12T11:43:15;4.15;;;3.42;;
61640;SDS011;62201;49.966;8.342;2022-09-12T11:45:45;4.55;;;3.47;;
61640;SDS011;62201;49.966;8.342;2022-09-12T11:48:15;4.78;;;2.97;;
61640;SDS011;62201;49.966;8.342;2022-09-12T11:50:52;4.05;;;2.90;;
61640;SDS011;62201;49.966;8.342;2022-09-12T11:53:20;3.92;;;3.10;;
61640;SDS011;62201;49.966;8.342;2022-09-12T11:58:46;3.25;;;2.95;;
61640;SDS011;62201;49.966;8.342;2022-09-12T12:01:19;4.22;;;3.17;;
61640;SDS011;62201;49.966;8.342;2022-09-12T12:03:49;3.33;;;2.95;;
61640;SDS011;62201;49.966;8.342;2022-09-12T12:09:11;4.05;;;2.88;;
61640;SDS011;62201;49.966;8.342;2022-09-12T12:11:39;4.30;;;2.42;;
61640;SDS011;62201;49.966;8.342;2022-09-12T12:14:25;6.15;;;3.78;;
61640;SDS011;62201;49.966;8.342;2022-09-12T12:17:00;4.30;;;2.80;;
61640;SDS011;62201;49.966;8.342;2022-09-12T12:21:55;5.03;;;2.90;;
61640;SDS011;62201;49.966;8.342;2022-09-12T12:25:05;4.40;;;2.95;;
61640;SDS011;62201;49.966;8.342;2022-09-12T12:27:47;5.75;;;2.92;;
61640;SDS011;62201;49.966;8.342;2022-09-12T12:33:51;3.42;;;2.78;;
61640;SDS011;62201;49.966;8.342;2022-09-12T12:38:34;3.22;;;2.53;;
61640;SDS011;62201;49.966;8.342;2022-09-12T12:43:42;1.88;;;1.65;;
61640;SDS011;62201;49.966;8.342;2022-09-12T12:46:12;3.70;;;2.20;;
61640;SDS011;62201;49.966;8.342;2022-09-12T12:48:50;4.70;;;2.33;;
61640;SDS011;62201;49.966;8.342;2022-09-12T12:51:41;2.97;;;1.92;;
61640;SDS011;62201;49.966;8.342;2022-09-12T12:57:26;2.65;;;2.45;;
61640;SDS011;62201;49.966;8.342;2022-09-12T13:05:41;2.80;;;2.40;;
61640;SDS011;62201;49.966;8.342;2022-09-12T13:10:48;3.27;;;2.17;;
61640;SDS011;62201;49.966;8.342;2022-09-12T13:16:00;2.08;;;1.90;;
61640;SDS011;62201;49.966;8.342;2022-09-12T13:18:26;2.30;;;2.10;;
61640;SDS011;62201;49.966;8.342;2022-09-12T13:21:13;2.92;;;2.20;;
61640;SDS011;62201;49.966;8.342;2022-09-12T13:23:43;3.60;;;2.28;;
61640;SDS011;62201;49.966;8.342;2022-09-12T13:26:23;6.95;;;2.28;;
61640;SDS011;62201;49.966;8.342;2022-09-12T13:29:08;2.28;;;2.08;;
61640;SDS011;62201;49.966;8.342;2022-09-12T13:31:44;3.95;;;2.33;;
61640;SDS011;62201;49.966;8.342;2022-09-12T13:34:32;2.83;;;2.20;;
61640;SDS011;62201;49.966;8.342;2022-09-12T13:37:08;2.78;;;1.90;;
61640;SDS011;62201;49.966;8.342;2022-09-12T13:42:48;3.45;;;2.58;;
61640;SDS011;62201;49.966;8.342;2022-09-12T13:45:24;3.20;;;2.58;;
61640;SDS011;62201;49.966;8.342;2022-09-12T13:47:57;3.15;;;2.38;;
61640;SDS011;62201;49.966;8.342;2022-09-12T13:50:26;2.55;;;2.35;;
61640;SDS011;62201;49.966;8.342;2022-09-12T13:52:58;5.28;;;2.70;;
61640;SDS011;62201;49.966;8.342;2022-09-12T13:58:00;3.03;;;2.50;;
61640;SDS011;62201;49.966;8.342;2022-09-12T14:00:28;3.13;;;2.47;;
61640;SDS011;62201;49.966;8.342;2022-09-12T14:02:56;3.13;;;2.38;;
61640;SDS011;62201;49.966;8.342;2022-09-12T14:05:41;3.00;;;2.58;;
61640;SDS011;62201;49.966;8.342;2022-09-12T14:08:10;3.67;;;2.55;;
61640;SDS011;62201;49.966;8.342;2022-09-12T14:10:38;3.10;;;2.75;;
61640;SDS011;62201;49.966;8.342;2022-09-12T14:13:14;2.92;;;2.47;;
61640;SDS011;62201;49.966;8.342;2022-09-12T14:15:44;5.03;;;2.72;;
61640;SDS011;62201;49.966;8.342;2022-09-12T14:18:23;2.40;;;2.20;;
61640;SDS011;62201;49.966;8.342;2022-09-12T14:20:50;2.72;;;2.50;;
61640;SDS011;62201;49.966;8.342;2022-09-12T14:23:23;3.35;;;3.03;;
61640;SDS011;62201;49.966;8.342;2022-09-12T14:25:51;2.75;;;2.30;;
61640;SDS011;62201;49.966;8.342;2022-09-12T14:28:18;2.97;;;2.35;;
61640;SDS011;62201;49.966;8.342;2022-09-12T14:31:06;2.50;;;2.30;;
61640;SDS011;62201;49.966;8.342;2022-09-12T14:33:32;3.53;;;2.08;;
61640;SDS011;62201;49.966;8.342;2022-09-12T14:38:51;2.50;;;2.25;;
61640;SDS011;62201;49.966;8.342;2022-09-12T14:41:22;2.95;;;2.30;;
61640;SDS011;62201;49.966;8.342;2022-09-12T14:43:51;3.85;;;1.92;;
61640;SDS011;62201;49.966;8.342;2022-09-12T14:46:25;4.18;;;2.30;;
61640;SDS011;62201;49.966;8.342;2022-09-12T14:48:59;3.53;;;2.42;;
61640;SDS011;62201;49.966;8.342;2022-09-12T14:56:55;2.67;;;2.30;;
61640;SDS011;62201;49.966;8.342;2022-09-12T15:04:42;2.58;;;2.38;;
61640;SDS011;62201;49.966;8.342;2022-09-12T15:09:56;3.17;;;2.20;;
61640;SDS011;62201;49.966;8.342;2022-09-12T15:12:40;4.47;;;2.90;;
61640;SDS011;62201;49.966;8.342;2022-09-12T15:15:12;3.65;;;2.08;;
61640;SDS011;62201;49.966;8.342;2022-09-12T15:17:39;3.20;;;2.40;;
61640;SDS011;62201;49.966;8.342;2022-09-12T15:20:04;2.75;;;2.42;;
61640;SDS011;62201;49.966;8.342;2022-09-12T15:22:30;6.47;;;2.50;;
61640;SDS011;62201;49.966;8.342;2022-09-12T15:24:57;16.45;;;2.97;;
61640;SDS011;62201;49.966;8.342;2022-09-12T15:27:22;2.30;;;2.10;;
61640;SDS011;62201;49.966;8.342;2022-09-12T15:29:50;2.38;;;2.17;;
61640;SDS011;62201;49.966;8.342;2022-09-12T15:32:21;8.52;;;2.53;;
61640;SDS011;62201;49.966;8.342;2022-09-12T15:34:47;3.40;;;2.10;;
61640;SDS011;62201;49.966;8.342;2022-09-12T15:37:12;10.85;;;2.40;;
61640;SDS011;62201;49.966;8.342;2022-09-12T15:39:45;8.07;;;2.60;;
61640;SDS011;62201;49.966;8.342;2022-09-12T15:42:10;4.18;;;2.22;;
61640;SDS011;62201;49.966;8.342;2022-09-12T15:44:37;2.85;;;2.10;;
61640;SDS011;62201;49.966;8.342;2022-09-12T15:47:03;6.13;;;2.17;;
61640;SDS011;62201;49.966;8.342;2022-09-12T15:49:29;4.38;;;1.92;;
61640;SDS011;62201;49.966;8.342;2022-09-12T15:51:54;32.25;;;3.80;;
61640;SDS011;62201;49.966;8.342;2022-09-12T15:54:19;2.67;;;2.00;;
61640;SDS011;62201;49.966;8.342;2022-09-12T15:56:45;23.33;;;3.55;;
61640;SDS011;62201;49.966;8.342;2022-09-12T15:59:10;4.80;;;2.05;;
61640;SDS011;62201;49.966;8.342;2022-09-12T16:01:37;3.20;;;1.95;;
61640;SDS011;62201;49.966;8.342;2022-09-12T16:04:03;2.92;;;1.65;;
61640;SDS011;62201;49.966;8.342;2022-09-12T16:06:52;14.02;;;2.17;;
61640;SDS011;62201;49.966;8.342;2022-09-12T16:09:18;12.45;;;2.20;;
61640;SDS011;62201;49.966;8.342;2022-09-12T16:11:44;20.80;;;2.67;;
61640;SDS011;62201;49.966;8.342;2022-09-12T16:14:12;8.88;;;1.90;;
61640;SDS011;62201;49.966;8.342;2022-09-12T16:16:41;15.43;;;2.33;;
61640;SDS011;62201;49.966;8.342;2022-09-12T16:19:08;2.53;;;1.70;;
61640;SDS011;62201;49.966;8.342;2022-09-12T16:21:35;2.05;;;1.63;;
61640;SDS011;62201;49.966;8.342;2022-09-12T16:24:01;1.98;;;1.60;;
61640;SDS011;62201;49.966;8.342;2022-09-12T16:26:26;9.95;;;2.25;;
61640;SDS011;62201;49.966;8.342;2022-09-12T16:28:58;11.10;;;2.15;;
61640;SDS011;62201;49.966;8.342;2022-09-12T16:31:23;117.93;;;10.43;;
61640;SDS011;62201;49.966;8.342;2022-09-12T16:33:50;57.15;;;5.82;;
61640;SDS011;62201;49.966;8.342;2022-09-12T16:36:17;16.00;;;2.78;;
61640;SDS011;62201;49.966;8.342;2022-09-12T16:38:44;45.88;;;5.43;;
61640;SDS011;62201;49.966;8.342;2022-09-12T16:41:15;16.58;;;2.60;;
61640;SDS011;62201;49.966;8.342;2022-09-12T16:43:42;10.38;;;1.95;;
61640;SDS011;62201;49.966;8.342;2022-09-12T16:48:34;10.70;;;2.10;;
61640;SDS011;62201;49.966;8.342;2022-09-12T16:51:00;6.18;;;1.70;;
61640;SDS011;62201;49.966;8.342;2022-09-12T16:53:31;17.40;;;3.78;;
61640;SDS011;62201;49.966;8.342;2022-09-12T16:55:58;10.30;;;2.60;;
61640;SDS011;62201;49.966;8.342;2022-09-12T16:58:23;5.38;;;1.58;;
61640;SDS011;62201;49.966;8.342;2022-09-12T17:00:51;6.45;;;2.30;;
61640;SDS011;62201;49.966;8.342;2022-09-12T17:03:43;18.58;;;2.95;;
61640;SDS011;62201;49.966;8.342;2022-09-12T17:06:12;13.23;;;2.85;;
61640;SDS011;62201;49.966;8.342;2022-09-12T17:08:41;8.18;;;2.50;;
61640;SDS011;62201;49.966;8.342;2022-09-12T17:11:10;3.38;;;1.58;;
61640;SDS011;62201;49.966;8.342;2022-09-12T17:13:47;4.30;;;1.80;;
61640;SDS011;62201;49.966;8.342;2022-09-12T17:16:13;5.60;;;2.47;;
61640;SDS011;62201;49.966;8.342;2022-09-12T17:18:38;7.90;;;2.30;;
61640;SDS011;62201;49.966;8.342;2022-09-12T17:21:05;3.03;;;2.00;;
61640;SDS011;62201;49.966;8.342;2022-09-12T17:23:31;10.45;;;2.60;;
61640;SDS011;62201;49.966;8.342;2022-09-12T17:25:57;4.75;;;2.33;;
61640;SDS011;62201;49.966;8.342;2022-09-12T17:28:23;4.15;;;1.88;;
61640;SDS011;62201;49.966;8.342;2022-09-12T17:30:55;7.45;;;2.30;;
61640;SDS011;62201;49.966;8.342;2022-09-12T17:33:24;5.53;;;2.63;;
61640;SDS011;62201;49.966;8.342;2022-09-12T17:35:50;3.20;;;1.83;;
61640;SDS011;62201;49.966;8.342;2022-09-12T17:38:16;6.22;;;2.03;;